createdAt,value
2022-10-23T17:02:55.421Z,31.40
2022-10-23T17:05:23.589Z,34.65
2022-10-23T17:07:51.494Z,33.85
2022-10-23T17:10:19.574Z,33.92
2022-10-23T17:12:50.084Z,33.58
2022-10-23T17:15:18.441Z,33.23
2022-10-23T17:17:46.615Z,31.60
2022-10-23T17:20:17.372Z,33.60
2022-10-23T17:22:45.299Z,32.03
2022-10-23T17:25:13.364Z,32.17
2022-10-23T17:27:41.310Z,31.50
2022-10-23T17:30:12.618Z,31.50
2022-10-23T17:32:41.161Z,34.10
2022-10-23T17:35:09.534Z,31.63
2022-10-23T17:37:37.441Z,34.78
2022-10-23T17:40:06.946Z,35.00
2022-10-23T17:42:35.014Z,33.85
2022-10-23T17:45:02.901Z,35.67
2022-10-23T17:47:31.051Z,32.15
2022-10-23T17:49:59.683Z,32.25
2022-10-23T17:52:27.450Z,32.70
2022-10-23T17:54:56.708Z,34.03
2022-10-23T17:57:24.445Z,30.92
2022-10-23T17:59:52.182Z,32.10
2022-10-23T18:02:20.112Z,32.85
2022-10-23T18:04:47.911Z,32.03
2022-10-23T18:07:17.054Z,31.92
2022-10-23T18:09:45.162Z,31.73
2022-10-23T18:12:13.661Z,31.52
2022-10-23T18:14:41.348Z,32.00
2022-10-23T18:17:09.067Z,30.98
2022-10-23T18:19:36.860Z,30.35
2022-10-23T18:22:04.758Z,30.67
2022-10-23T18:24:35.066Z,30.50
2022-10-23T18:27:02.881Z,31.38
2022-10-23T18:29:31.013Z,30.35
2022-10-23T18:31:58.889Z,33.63
2022-10-23T18:34:26.807Z,33.30
2022-10-23T18:36:54.971Z,33.28
2022-10-23T18:39:25.535Z,32.53
2022-10-23T18:41:57.194Z,34.75
2022-10-23T18:44:29.103Z,37.00
2022-10-23T18:46:59.083Z,36.72
2022-10-23T18:49:30.667Z,36.15
2022-10-23T18:52:11.616Z,32.38
2022-10-23T18:54:46.170Z,34.20
2022-10-23T18:57:15.615Z,35.03
2022-10-23T18:59:43.425Z,33.25
2022-10-23T19:02:13.894Z,35.50
2022-10-23T19:04:42.224Z,41.15
2022-10-23T19:07:10.201Z,39.28
2022-10-23T19:09:40.347Z,36.08
2022-10-23T19:12:09.874Z,37.00
2022-10-23T19:14:37.630Z,35.45
2022-10-23T19:17:26.935Z,37.47
2022-10-23T19:20:11.400Z,39.13
2022-10-23T19:22:43.274Z,36.13
2022-10-23T19:25:18.433Z,37.42
2022-10-23T19:28:09.352Z,41.85
2022-10-23T19:30:37.904Z,37.40
2022-10-23T19:33:06.013Z,38.97
2022-10-23T19:35:38.567Z,38.30
2022-10-23T19:38:12.071Z,39.40
2022-10-23T19:40:45.591Z,40.65
2022-10-23T19:43:15.699Z,40.65
2022-10-23T19:45:47.776Z,41.25
2022-10-23T19:48:15.681Z,40.15
2022-10-23T19:50:43.671Z,39.20
2022-10-23T19:53:11.990Z,39.83
2022-10-23T19:55:39.824Z,43.00
2022-10-23T19:58:08.972Z,44.35
2022-10-23T20:00:41.509Z,41.63
2022-10-23T20:03:13.046Z,43.17
2022-10-23T20:05:45.512Z,44.60
2022-10-23T20:08:13.393Z,48.63
2022-10-23T20:10:50.615Z,49.20
2022-10-23T20:13:36.591Z,49.67
2022-10-23T20:16:31.130Z,47.10
2022-10-23T20:19:12.115Z,45.92
2022-10-23T20:21:52.183Z,45.55
2022-10-23T20:24:21.018Z,49.15
2022-10-23T20:26:52.353Z,48.08
2022-10-23T20:29:21.251Z,48.13
2022-10-23T20:31:49.088Z,45.25
2022-10-23T20:34:19.705Z,45.35
2022-10-23T20:36:49.980Z,47.25
2022-10-23T20:39:21.518Z,48.22
2022-10-23T20:41:49.371Z,45.00
2022-10-23T20:44:19.422Z,44.47
2022-10-23T20:46:54.840Z,45.92
2022-10-23T20:49:23.321Z,45.30
2022-10-23T20:51:56.636Z,48.95
2022-10-23T20:54:27.052Z,49.50
2022-10-23T20:57:21.428Z,49.78
2022-10-23T21:00:17.471Z,49.65
2022-10-23T21:02:52.084Z,45.78
2022-10-23T21:05:21.702Z,45.85
2022-10-23T21:08:14.272Z,47.72
2022-10-23T21:10:48.728Z,44.92
2022-10-23T21:13:43.225Z,47.28
2022-10-23T21:16:34.185Z,48.03
2022-10-23T21:19:03.944Z,47.35
2022-10-23T21:21:33.396Z,47.20
2022-10-23T21:24:07.539Z,50.50
2022-10-23T21:26:37.041Z,50.55
2022-10-23T21:29:17.987Z,52.97
2022-10-23T21:31:56.359Z,54.10
2022-10-23T21:34:25.702Z,55.20
2022-10-23T21:37:12.497Z,56.80
2022-10-23T21:39:44.237Z,55.20
2022-10-23T21:42:14.188Z,55.97
2022-10-23T21:44:43.601Z,56.22
2022-10-23T21:47:13.530Z,56.55
2022-10-23T21:49:42.961Z,57.35
2022-10-23T21:52:10.681Z,62.92
2022-10-23T21:54:38.500Z,60.53
2022-10-23T21:57:12.957Z,57.13
2022-10-23T22:00:05.850Z,57.85
2022-10-23T22:02:40.386Z,59.47
2022-10-23T22:05:10.418Z,62.22
2022-10-23T22:07:48.161Z,62.80
2022-10-23T22:10:16.030Z,60.90
2022-10-23T22:12:45.728Z,61.92
2022-10-23T22:15:13.540Z,61.60
2022-10-23T22:17:41.451Z,60.53
2022-10-23T22:20:09.631Z,63.10
2022-10-23T22:22:40.323Z,62.97
2022-10-23T22:25:08.890Z,66.50
2022-10-23T22:27:38.315Z,63.85
2022-10-23T22:30:06.713Z,62.70
2022-10-23T22:32:35.508Z,64.07
2022-10-23T22:35:03.471Z,65.97
2022-10-23T22:37:31.087Z,64.68
2022-10-23T22:40:00.041Z,65.50
2022-10-23T22:42:27.623Z,62.13
2022-10-23T22:44:55.341Z,62.72
2022-10-23T22:47:23.014Z,63.83
2022-10-23T22:49:51.804Z,63.42
2022-10-23T22:52:44.427Z,63.95
2022-10-23T22:55:12.347Z,68.72
2022-10-23T22:57:39.973Z,62.67
2022-10-23T23:00:10.470Z,66.13
2022-10-23T23:02:38.177Z,65.53
2022-10-23T23:05:06.107Z,65.88
2022-10-23T23:07:34.001Z,65.05
2022-10-23T23:10:01.733Z,61.70
2022-10-23T23:12:29.478Z,62.92
2022-10-23T23:15:01.403Z,62.85
2022-10-23T23:17:29.110Z,63.30
2022-10-23T23:19:56.860Z,62.55
2022-10-23T23:24:52.529Z,64.03
2022-10-23T23:27:20.322Z,60.75
2022-10-23T23:29:48.184Z,61.97
2022-10-23T23:32:41.706Z,61.60
2022-10-23T23:35:10.230Z,62.00
2022-10-23T23:37:37.939Z,63.92
2022-10-23T23:40:06.355Z,61.00
2022-10-23T23:42:34.089Z,64.97
2022-10-23T23:45:13.618Z,62.25
2022-10-23T23:47:43.142Z,60.25
2022-10-23T23:50:12.132Z,62.15
2022-10-23T23:52:39.862Z,63.47
2022-10-23T23:55:32.285Z,64.93
2022-10-23T23:58:00.155Z,66.35
